TZ-0051 weather

Rungwa Airport
Rungwa, Singida Region, Tanzania

Public forecast

Using degrees Celsius for public forecast. Weather courtesy of forecast.io.

METAR (pilot weather report)

Report is more than 6 hours old.

Closest report is Tabora Airport, 119.1 nm (220.6 km) NNW. Retrieved 2019/05/20 04:00 UTC (14 hours ago):

HTTB 200400Z 00000KT 9999 FEW017 18/16 Q1018 NOSIG

TAF (pilot weather forecast)

Forecast is more than 12 hours old.

Closest forecast is Tabora Airport, 119.1 nm (220.6 km) NNW. Retrieved 2019/05/16 12:00 UTC (4 days ago):

TAF HTTB 161100Z 1612/1712 00000KT 9999 FEW024